Berea, West Virginia
Current Conditions -  °F | °C
As of 4:53 AM on Monday 26 Jan 2015 (Local Time) from KPKB Reporting Station
Haze Haze  
Wind Chill: 31°   Ceiling: 200
Heat Index: 35°   Visibility: 4mi
Dew Point: 34°   Wind: 5mph
Humidity: 96%   Direction: 350°N
Pressure: 29.68"   Gusts: NA
Location:  39.14°N, 80.93°W
Report Text: KPKB 260953Z AUTO 35004KT 4SM BR OVC002 02/01 A2968 RMK AO2 RAE40 SLP055 P0001 T00170011
Loading
Personal Weather Stations






























Interactive Weather Map New forecast layout! Learn more

10-Day Weather Forecast

Advertisements
Track Severe Weather on mobile